HSSS

Khartoum International Airport

Khartoum, Sudan
TAF HSSS 211700Z 2118/2224 18006G16KT 9999 FEW040 SCT140 PROB30 TEMPO 2118/2124 6000 TSRA FEW045CB
Issued Valid From Valid To
Sep-21 @ 17:00 UTC
(10 hours ago)
Sep-21 @ 18:00 UTC
(9 hours ago)
Sep-23 @ 00:00 UTC
(in 21 hours)
to
to
TAF HSSS 211700Z 2118/2224 18006G16KT 9999 FEW040 SCT140 PROB30 TEMPO 2118/2124 6000 TSRA FEW045CB
Issued Sep-21 @ 17:00 UTC
(10 hours ago)
Valid From Sep-21 @ 18:00 UTC
(9 hours ago)
Valid To Sep-23 @ 00:00 UTC
(in 21 hours)
-
-